createdAt,value
2019-05-13T00:01:18.084Z,12.26
2019-05-13T00:04:08.951Z,12.21
2019-05-13T00:06:58.745Z,12.16
2019-05-13T00:09:49.005Z,12.11
2019-05-13T00:12:38.868Z,12.05
2019-05-13T00:15:28.983Z,11.99
2019-05-13T00:18:18.887Z,11.93
2019-05-13T00:21:08.726Z,11.90
2019-05-13T00:23:58.863Z,11.86
2019-05-13T00:26:48.750Z,11.81
2019-05-13T00:29:38.802Z,11.77
2019-05-13T00:32:28.674Z,11.73
2019-05-13T00:35:19.213Z,11.67
2019-05-13T00:38:09.157Z,11.63
2019-05-13T00:40:59.320Z,11.60
2019-05-13T00:43:49.608Z,11.54
2019-05-13T00:46:39.374Z,11.51
2019-05-13T00:49:29.291Z,11.48
2019-05-13T00:52:19.452Z,11.42
2019-05-13T00:55:10.281Z,11.38
2019-05-13T00:58:00.122Z,11.30
2019-05-13T01:00:49.721Z,11.27
2019-05-13T01:03:40.022Z,11.20
2019-05-13T01:06:29.700Z,11.15
2019-05-13T01:09:18.757Z,11.07
2019-05-13T01:12:09.003Z,11.05
2019-05-13T01:14:58.662Z,11.01
2019-05-13T01:17:49.070Z,11.00
2019-05-13T01:20:39.320Z,10.97
2019-05-13T01:23:29.687Z,10.94
2019-05-13T01:26:19.739Z,10.90
2019-05-13T01:29:09.991Z,10.86
2019-05-13T01:32:00.170Z,10.81
2019-05-13T01:34:49.724Z,10.78
2019-05-13T01:37:42.746Z,10.69
2019-05-13T01:40:30.946Z,10.68
2019-05-13T01:43:20.718Z,10.66
2019-05-13T01:46:10.341Z,10.60
2019-05-13T01:49:00.387Z,10.57
2019-05-13T01:51:50.537Z,10.53
2019-05-13T01:54:40.290Z,10.46
2019-05-13T01:57:30.018Z,10.46
2019-05-13T02:00:20.577Z,10.41
2019-05-13T02:03:10.662Z,10.38
2019-05-13T02:06:00.322Z,10.36
2019-05-13T02:08:50.294Z,10.30
2019-05-13T02:11:40.208Z,10.27
2019-05-13T02:14:30.170Z,10.22
2019-05-13T02:17:19.952Z,10.20
2019-05-13T02:20:10.368Z,10.18
2019-05-13T02:23:00.091Z,10.17
2019-05-13T02:25:49.881Z,10.15
2019-05-13T02:28:39.813Z,10.12
2019-05-13T02:31:41.338Z,10.09
2019-05-13T02:34:23.296Z,10.04
2019-05-13T02:37:13.590Z,10.01
2019-05-13T02:40:04.201Z,9.98
2019-05-13T02:42:54.132Z,9.94
2019-05-13T02:45:45.230Z,9.91
2019-05-13T02:48:34.763Z,9.85
2019-05-13T02:51:24.854Z,9.83
2019-05-13T02:54:14.465Z,9.79
2019-05-13T02:57:04.759Z,9.75
2019-05-13T02:59:54.499Z,9.71
2019-05-13T03:02:44.822Z,9.69
2019-05-13T03:05:34.401Z,9.66
2019-05-13T03:08:39.773Z,9.61
2019-05-13T03:11:16.904Z,9.60
2019-05-13T03:14:06.931Z,9.57
2019-05-13T03:17:03.558Z,9.55
2019-05-13T03:19:53.734Z,9.50
2019-05-13T03:22:43.706Z,9.47
2019-05-13T03:25:33.989Z,9.43
2019-05-13T03:28:23.992Z,9.40
2019-05-13T03:31:16.910Z,9.37
2019-05-13T03:34:07.109Z,9.34
2019-05-13T03:36:58.263Z,9.29
2019-05-13T03:39:52.288Z,9.28
2019-05-13T03:42:45.524Z,9.25
2019-05-13T03:45:38.144Z,9.24
2019-05-13T03:48:33.270Z,9.23
2019-05-13T03:51:23.186Z,9.22
2019-05-13T03:54:14.809Z,9.19
2019-05-13T03:57:05.587Z,9.20
2019-05-13T03:59:55.700Z,9.19
2019-05-13T04:02:45.697Z,9.20
2019-05-13T04:05:36.039Z,9.19
2019-05-13T04:08:26.928Z,9.20
2019-05-13T04:11:17.418Z,9.20
2019-05-13T04:14:07.637Z,9.22
2019-05-13T04:16:58.011Z,9.23
2019-05-13T04:19:48.096Z,9.24
2019-05-13T04:22:38.507Z,9.26
2019-05-13T04:25:28.566Z,9.29
2019-05-13T04:28:22.014Z,9.33
2019-05-13T04:31:14.238Z,9.40
2019-05-13T04:34:03.435Z,9.44
2019-05-13T04:36:54.742Z,9.45
2019-05-13T04:39:51.679Z,9.50
2019-05-13T04:42:36.976Z,9.52
2019-05-13T04:45:26.881Z,9.51
2019-05-13T04:48:18.568Z,9.58
2019-05-13T04:51:08.584Z,9.62
2019-05-13T04:53:58.697Z,9.68
2019-05-13T04:56:52.238Z,9.76
2019-05-13T04:59:44.459Z,9.86
2019-05-13T05:03:13.661Z,9.98
2019-05-13T05:06:48.225Z,10.03
2019-05-13T05:10:30.349Z,10.09
2019-05-13T05:13:48.211Z,10.14
2019-05-13T05:17:05.537Z,10.25
2019-05-13T05:20:28.736Z,10.35
2019-05-13T05:23:57.837Z,10.46
2019-05-13T05:27:48.737Z,10.60
2019-05-13T05:31:41.781Z,10.68
2019-05-13T05:35:43.945Z,10.84
2019-05-13T05:39:06.258Z,10.95
2019-05-13T05:41:58.166Z,11.08
2019-05-13T05:44:52.043Z,11.14
2019-05-13T05:47:45.616Z,11.28
2019-05-13T05:50:36.966Z,11.43
2019-05-13T05:53:31.892Z,11.56
2019-05-13T05:56:25.173Z,11.76
2019-05-13T05:59:15.167Z,11.86
2019-05-13T06:02:06.001Z,12.03
2019-05-13T06:04:57.650Z,12.15
2019-05-13T06:07:47.983Z,12.27
2019-05-13T06:10:49.081Z,12.39
2019-05-13T06:13:31.493Z,12.56
2019-05-13T06:16:21.813Z,12.65
2019-05-13T06:19:12.285Z,12.75
2019-05-13T06:22:02.782Z,12.88
2019-05-13T06:24:52.868Z,12.92
2019-05-13T06:27:43.070Z,13.03
2019-05-13T06:30:32.956Z,13.14
2019-05-13T06:33:23.236Z,13.24
2019-05-13T06:36:13.528Z,13.38
2019-05-13T06:39:05.530Z,13.41
2019-05-13T06:41:55.106Z,13.47
2019-05-13T06:44:45.171Z,13.56
2019-05-13T06:47:36.794Z,13.61
2019-05-13T06:50:27.026Z,13.74
2019-05-13T06:53:16.653Z,13.84
2019-05-13T06:56:06.275Z,13.89
2019-05-13T06:58:57.059Z,13.98
2019-05-13T07:01:46.924Z,14.07
2019-05-13T07:04:37.115Z,14.10
2019-05-13T07:07:26.929Z,14.07
2019-05-13T07:10:17.016Z,14.17
2019-05-13T07:13:06.721Z,14.23
2019-05-13T07:15:57.039Z,14.25
2019-05-13T07:18:47.086Z,14.30
2019-05-13T07:21:36.380Z,14.33
2019-05-13T07:24:26.546Z,14.40
2019-05-13T07:27:16.415Z,14.49
2019-05-13T07:30:06.606Z,14.63
2019-05-13T07:32:56.863Z,14.77
2019-05-13T07:35:46.709Z,14.90
2019-05-13T07:38:36.684Z,15.11
2019-05-13T07:41:38.215Z,15.24
2019-05-13T07:44:18.563Z,15.61
2019-05-13T07:47:08.393Z,16.19
2019-05-13T07:49:58.314Z,16.68
2019-05-13T07:52:47.792Z,17.05
2019-05-13T07:55:37.766Z,17.29
2019-05-13T07:58:28.025Z,17.36
2019-05-13T08:01:17.876Z,17.41
2019-05-13T08:04:19.180Z,17.31
2019-05-13T08:07:02.022Z,17.10
2019-05-13T08:09:52.506Z,16.92
2019-05-13T08:12:42.743Z,16.69
2019-05-13T08:15:33.042Z,16.55
2019-05-13T08:18:22.956Z,16.35
2019-05-13T08:21:12.909Z,16.25
2019-05-13T08:24:03.089Z,16.17
2019-05-13T08:26:53.254Z,16.23
2019-05-13T08:29:43.785Z,16.40
2019-05-13T08:32:34.173Z,16.35
2019-05-13T08:35:24.077Z,16.33
2019-05-13T08:38:13.661Z,16.28
2019-05-13T08:41:03.744Z,16.31
2019-05-13T08:43:53.295Z,16.29
2019-05-13T08:46:43.647Z,16.27
2019-05-13T08:49:33.053Z,16.32
2019-05-13T08:52:23.415Z,16.37
2019-05-13T08:55:16.165Z,16.37
2019-05-13T08:58:05.425Z,16.42
2019-05-13T09:00:59.120Z,16.48
2019-05-13T09:03:48.817Z,16.68
2019-05-13T09:06:38.955Z,16.97
2019-05-13T09:09:31.325Z,17.52
2019-05-13T09:12:32.174Z,18.09
2019-05-13T09:15:13.492Z,18.85
2019-05-13T09:18:03.543Z,19.76
2019-05-13T09:20:53.898Z,20.24
2019-05-13T09:23:44.043Z,20.48
2019-05-13T09:26:34.346Z,20.35
2019-05-13T09:29:24.625Z,20.10
2019-05-13T09:32:14.555Z,20.25
2019-05-13T09:35:05.035Z,20.20
2019-05-13T09:37:54.766Z,19.93
2019-05-13T09:40:44.772Z,19.71
2019-05-13T09:43:34.834Z,19.52
2019-05-13T09:46:24.909Z,19.44
2019-05-13T09:49:19.750Z,19.52
2019-05-13T09:52:06.943Z,19.53
2019-05-13T09:54:57.182Z,19.47
2019-05-13T09:57:47.248Z,19.40
2019-05-13T10:00:37.263Z,19.23
2019-05-13T10:03:29.675Z,19.15
2019-05-13T10:06:18.958Z,19.00
2019-05-13T10:09:12.191Z,19.18
2019-05-13T10:12:03.041Z,19.30
2019-05-13T10:14:53.020Z,19.33
2019-05-13T10:17:43.134Z,19.74
2019-05-13T10:20:57.928Z,19.93
2019-05-13T10:23:45.751Z,20.08
2019-05-13T10:26:36.214Z,21.24
2019-05-13T10:29:26.151Z,22.39
2019-05-13T10:32:16.463Z,23.25
2019-05-13T10:35:07.469Z,23.33
2019-05-13T10:37:58.031Z,23.72
2019-05-13T10:40:47.811Z,24.12
2019-05-13T10:43:43.273Z,25.00
2019-05-13T10:46:32.064Z,26.16
2019-05-13T10:49:22.339Z,26.47
2019-05-13T10:52:12.582Z,26.05
2019-05-13T10:55:02.991Z,25.63
2019-05-13T10:57:53.849Z,26.03
2019-05-13T11:00:51.836Z,26.48
2019-05-13T11:03:42.757Z,26.91
2019-05-13T11:06:33.055Z,27.60
2019-05-13T11:09:25.537Z,28.47
2019-05-13T11:12:15.740Z,29.25
2019-05-13T11:15:06.296Z,29.00
2019-05-13T11:17:56.530Z,29.17
2019-05-13T11:20:46.647Z,29.88
2019-05-13T11:23:36.411Z,30.52
2019-05-13T11:26:26.249Z,30.43
2019-05-13T11:29:16.212Z,30.18
2019-05-13T11:32:06.793Z,30.10
2019-05-13T11:34:56.584Z,29.77
2019-05-13T11:37:46.613Z,29.19
2019-05-13T11:40:37.413Z,28.84
2019-05-13T11:43:28.122Z,28.55
2019-05-13T11:46:21.951Z,27.84
2019-05-13T11:49:11.772Z,27.00
2019-05-13T11:52:02.642Z,26.35
2019-05-13T11:54:54.209Z,25.81
2019-05-13T11:57:44.612Z,25.26
2019-05-13T12:00:54.467Z,25.27
2019-05-13T12:03:44.220Z,25.74
2019-05-13T12:06:34.058Z,26.39
2019-05-13T12:09:24.205Z,26.88
2019-05-13T12:12:14.049Z,27.06
2019-05-13T12:15:26.507Z,26.90
2019-05-13T12:17:56.135Z,26.81
2019-05-13T12:20:46.568Z,26.71
2019-05-13T12:23:36.636Z,26.37
2019-05-13T12:26:26.696Z,25.88
2019-05-13T12:29:19.215Z,25.32
2019-05-13T12:32:08.186Z,24.72
2019-05-13T12:34:57.955Z,24.21
2019-05-13T12:37:48.265Z,23.74
2019-05-13T12:40:38.509Z,23.33
2019-05-13T12:43:28.340Z,23.13
2019-05-13T12:46:18.621Z,23.04
2019-05-13T12:49:09.145Z,22.94
2019-05-13T12:52:01.709Z,22.91
2019-05-13T12:54:52.833Z,22.76
2019-05-13T12:57:42.814Z,22.52
2019-05-13T13:00:33.206Z,22.18
2019-05-13T13:03:24.147Z,21.98
2019-05-13T13:06:36.600Z,21.65
2019-05-13T13:09:06.518Z,21.47
2019-05-13T13:11:56.709Z,21.22
2019-05-13T13:14:46.849Z,21.06
2019-05-13T13:17:36.474Z,21.04
2019-05-13T13:20:26.565Z,21.01
2019-05-13T13:23:17.840Z,21.01
2019-05-13T13:26:15.216Z,20.93
2019-05-13T13:28:59.752Z,20.81
2019-05-13T13:31:54.038Z,20.69
2019-05-13T13:34:43.895Z,20.74
2019-05-13T13:37:35.326Z,20.82
2019-05-13T13:40:29.541Z,20.71
2019-05-13T13:43:18.486Z,20.71
2019-05-13T13:46:25.044Z,20.66
2019-05-13T13:49:00.620Z,20.69
2019-05-13T13:51:50.633Z,20.75
2019-05-13T13:54:44.287Z,20.96
2019-05-13T13:57:32.604Z,21.18
2019-05-13T14:00:38.155Z,21.25
2019-05-13T14:03:15.799Z,21.40
2019-05-13T14:06:06.541Z,21.46
2019-05-13T14:08:58.191Z,21.45
2019-05-13T14:11:47.815Z,21.48
2019-05-13T14:14:41.250Z,21.51
2019-05-13T14:17:31.277Z,21.63
2019-05-13T14:20:22.064Z,21.86
2019-05-13T14:23:12.614Z,22.15
2019-05-13T14:26:02.720Z,22.36
2019-05-13T14:28:53.786Z,22.41
2019-05-13T14:31:43.771Z,22.42
2019-05-13T14:34:33.947Z,22.29
2019-05-13T14:37:24.035Z,22.04
2019-05-13T14:40:14.538Z,21.76
2019-05-13T14:43:04.893Z,21.56
2019-05-13T14:45:55.728Z,21.30
2019-05-13T14:48:45.615Z,21.25
2019-05-13T14:51:35.659Z,21.18
2019-05-13T14:54:25.393Z,21.04
2019-05-13T14:57:15.571Z,20.99
2019-05-13T15:00:07.501Z,20.98
2019-05-13T15:02:57.820Z,21.03
2019-05-13T15:05:48.908Z,21.02
2019-05-13T15:08:38.646Z,21.12
2019-05-13T15:11:28.157Z,21.18
2019-05-13T15:14:18.207Z,21.24
2019-05-13T15:17:08.178Z,21.22
2019-05-13T15:19:58.261Z,21.15
2019-05-13T15:22:48.695Z,21.00
2019-05-13T15:25:38.063Z,20.95
2019-05-13T15:28:27.517Z,20.92
2019-05-13T15:31:17.464Z,20.87
2019-05-13T15:34:08.977Z,20.82
2019-05-13T15:36:58.863Z,20.79
2019-05-13T15:39:51.663Z,20.73
2019-05-13T15:42:40.686Z,20.54
2019-05-13T15:45:31.904Z,20.42
2019-05-13T15:48:22.218Z,20.28
2019-05-13T15:51:12.971Z,20.21
2019-05-13T15:54:04.068Z,20.22
2019-05-13T15:56:54.813Z,20.33
2019-05-13T15:59:44.907Z,20.39
2019-05-13T16:02:35.439Z,20.45
2019-05-13T16:05:25.664Z,20.44
2019-05-13T16:08:15.662Z,20.44
2019-05-13T16:11:05.792Z,20.38
2019-05-13T16:13:57.347Z,20.30
2019-05-13T16:16:47.123Z,20.22
2019-05-13T16:19:36.884Z,20.14
2019-05-13T16:22:27.012Z,20.09
2019-05-13T16:25:17.002Z,20.05
2019-05-13T16:28:07.340Z,19.92
2019-05-13T16:30:57.417Z,19.78
2019-05-13T16:33:47.703Z,19.61
2019-05-13T16:36:39.032Z,19.44
2019-05-13T16:39:31.338Z,19.28
2019-05-13T16:42:22.599Z,19.27
2019-05-13T16:45:13.427Z,19.17
2019-05-13T16:48:04.169Z,19.11
2019-05-13T16:50:54.151Z,19.05
2019-05-13T16:53:44.440Z,19.00
2019-05-13T16:56:34.460Z,18.86
2019-05-13T16:59:24.238Z,18.75
2019-05-13T17:02:14.432Z,18.66
2019-05-13T17:05:05.335Z,18.57
2019-05-13T17:07:55.884Z,18.45
2019-05-13T17:10:45.930Z,18.41
2019-05-13T17:13:35.990Z,18.34
2019-05-13T17:16:26.196Z,18.29
2019-05-13T17:19:16.033Z,18.26
2019-05-13T17:22:06.350Z,18.25
2019-05-13T17:24:56.340Z,18.24
2019-05-13T17:27:46.587Z,18.23
2019-05-13T17:30:37.066Z,18.22
2019-05-13T17:33:27.434Z,18.15
2019-05-13T17:36:18.029Z,18.13
2019-05-13T17:39:11.783Z,18.06
2019-05-13T17:42:01.611Z,18.07
2019-05-13T17:44:52.235Z,18.01
2019-05-13T17:47:42.338Z,18.08
2019-05-13T17:50:32.478Z,18.08
2019-05-13T17:53:22.873Z,18.03
2019-05-13T17:56:14.032Z,18.09
2019-05-13T17:59:03.999Z,18.07
2019-05-13T18:01:54.563Z,18.11
2019-05-13T18:04:44.403Z,18.10
2019-05-13T18:07:34.473Z,18.07
2019-05-13T18:10:24.781Z,18.07
2019-05-13T18:13:16.046Z,18.03
2019-05-13T18:16:07.496Z,18.06
2019-05-13T18:18:58.546Z,18.07
2019-05-13T18:21:51.512Z,18.09
2019-05-13T18:24:41.002Z,18.13
2019-05-13T18:27:32.358Z,18.14
2019-05-13T18:30:22.829Z,18.14
2019-05-13T18:33:12.908Z,18.09
2019-05-13T18:36:02.976Z,18.04
2019-05-13T18:38:52.823Z,17.95
2019-05-13T18:41:42.401Z,17.87
2019-05-13T18:44:32.454Z,17.77
2019-05-13T18:47:22.199Z,17.66
2019-05-13T18:50:11.903Z,17.53
2019-05-13T18:53:01.969Z,17.43
2019-05-13T18:55:52.718Z,17.27
2019-05-13T18:58:42.260Z,17.14
2019-05-13T19:01:32.258Z,17.02
2019-05-13T19:04:22.353Z,16.89
2019-05-13T19:07:12.575Z,16.74
2019-05-13T19:10:02.636Z,16.56
2019-05-13T19:12:52.962Z,16.42
2019-05-13T19:15:42.784Z,16.27
2019-05-13T19:18:32.753Z,16.14
2019-05-13T19:21:22.824Z,16.05
2019-05-13T19:24:13.479Z,15.90
2019-05-13T19:27:07.471Z,15.80
2019-05-13T19:29:57.250Z,15.66
2019-05-13T19:32:47.191Z,15.57
2019-05-13T19:35:36.656Z,15.44
2019-05-13T19:38:28.343Z,15.35
2019-05-13T19:41:19.100Z,15.24
2019-05-13T19:44:09.375Z,15.14
2019-05-13T19:47:01.899Z,15.03
2019-05-13T19:49:52.458Z,14.94
2019-05-13T19:52:42.644Z,14.82
2019-05-13T19:55:33.892Z,14.71
2019-05-13T19:58:29.498Z,14.59
2019-05-13T20:01:15.800Z,14.49
2019-05-13T20:04:05.962Z,14.39
2019-05-13T20:06:56.433Z,14.27
2019-05-13T20:09:46.165Z,14.16
2019-05-13T20:12:35.989Z,14.06
2019-05-13T20:15:26.185Z,13.99
2019-05-13T20:18:16.452Z,13.89
2019-05-13T20:21:06.511Z,13.80
2019-05-13T20:23:56.851Z,13.71
2019-05-13T20:26:46.639Z,13.62
2019-05-13T20:29:36.498Z,13.52
2019-05-13T20:32:26.252Z,13.46
2019-05-13T20:35:15.731Z,13.37
2019-05-13T20:38:05.523Z,13.28
2019-05-13T20:40:55.894Z,13.20
2019-05-13T20:43:45.829Z,13.11
2019-05-13T20:46:36.598Z,13.04
2019-05-13T20:49:26.423Z,12.97
2019-05-13T20:52:16.611Z,12.92
2019-05-13T20:55:07.102Z,12.85
2019-05-13T20:57:57.429Z,12.81
2019-05-13T21:00:46.897Z,11.23
2019-05-13T21:03:36.564Z,12.70
2019-05-13T21:06:26.961Z,12.65
2019-05-13T21:09:17.577Z,12.59
2019-05-13T21:12:07.701Z,12.58
2019-05-13T21:14:57.844Z,12.56
2019-05-13T21:17:48.201Z,12.55
2019-05-13T21:20:41.005Z,12.54
2019-05-13T21:23:31.422Z,12.55
2019-05-13T21:26:22.524Z,12.54
2019-05-13T21:29:12.073Z,12.57
2019-05-13T21:32:01.947Z,12.55
2019-05-13T21:34:51.773Z,12.56
2019-05-13T21:37:42.396Z,12.56
2019-05-13T21:40:32.185Z,12.54
2019-05-13T21:43:21.832Z,12.53
2019-05-13T21:46:12.150Z,12.50
2019-05-13T21:49:02.237Z,12.50
2019-05-13T21:51:52.213Z,12.50
2019-05-13T21:54:42.343Z,12.48
2019-05-13T21:57:33.143Z,12.48
2019-05-13T22:00:27.586Z,12.48
2019-05-13T22:03:19.173Z,12.50
2019-05-13T22:06:11.033Z,12.51
2019-05-13T22:09:00.542Z,12.52
2019-05-13T22:11:52.318Z,12.52
2019-05-13T22:14:42.161Z,12.53
2019-05-13T22:17:32.371Z,12.56
2019-05-13T22:20:22.910Z,12.62
2019-05-13T22:23:12.642Z,12.66
2019-05-13T22:26:02.336Z,12.70
2019-05-13T22:28:52.397Z,12.75
2019-05-13T22:31:42.757Z,12.78
2019-05-13T22:34:32.627Z,12.82
2019-05-13T22:37:23.625Z,12.87
2019-05-13T22:40:14.119Z,12.92
2019-05-13T22:43:07.274Z,12.96
2019-05-13T22:45:57.028Z,13.02
2019-05-13T22:48:47.074Z,13.08
2019-05-13T22:51:37.366Z,13.13
2019-05-13T22:54:27.177Z,13.17
2019-05-13T22:57:16.626Z,13.21
2019-05-13T23:00:08.525Z,13.25
2019-05-13T23:03:01.607Z,13.26
2019-05-13T23:05:52.191Z,13.30
2019-05-13T23:08:42.962Z,13.30
2019-05-13T23:11:33.015Z,13.32
2019-05-13T23:14:22.864Z,13.33
2019-05-13T23:17:13.200Z,13.33
2019-05-13T23:20:02.887Z,13.35
2019-05-13T23:22:53.908Z,13.35
2019-05-13T23:25:44.185Z,13.35
2019-05-13T23:28:34.492Z,13.35
2019-05-13T23:31:24.620Z,13.38
2019-05-13T23:34:14.573Z,13.37
2019-05-13T23:37:04.845Z,13.36
2019-05-13T23:39:54.776Z,13.36
2019-05-13T23:42:44.922Z,13.34
2019-05-13T23:45:34.592Z,13.32
2019-05-13T23:48:25.026Z,13.34
2019-05-13T23:51:14.761Z,13.32
2019-05-13T23:54:04.659Z,13.33
2019-05-13T23:56:54.121Z,13.32
2019-05-13T23:59:43.948Z,13.31
